Time;durP1;ratioP1;P1;durP2;ratioP2;P2;SDS_P1;SDS_P2;PMS_P1;PMS_P2;Temp;Humidity;BMP_temperature;BMP_pressure;BME280_temperature;BME280_humidity;BME280_pressure;Samples;Min_cycle;Max_cycle;Signal;HPM_P1;HPM_P2
2023/06/08 00:01:52;;;;;;;20.55;13.10;;;13.60;99.90;;;;;;5086654;28;20043;-71
2023/06/08 00:04:18;;;;;;;;;;;13.60;99.90;;;;;;5076355;28;20039;-71
2023/06/08 00:06:44;;;;;;;19.50;13.30;;;13.50;99.90;;;;;;5086692;28;19923;-73
2023/06/08 00:09:10;;;;;;;25.50;14.68;;;13.50;99.90;;;;;;5088939;28;20066;-70
2023/06/08 00:11:37;;;;;;;20.23;15.20;;;13.50;99.90;;;;;;5073558;28;20067;-72
2023/06/08 00:14:02;;;;;;;25.20;15.98;;;13.40;99.90;;;;;;5073711;28;20051;-70
2023/06/08 00:16:28;;;;;;;25.95;15.18;;;13.30;99.90;;;;;;5074132;28;20443;-71
2023/06/08 00:18:56;;;;;;;21.50;14.52;;;13.30;99.90;;;;;;5102498;28;20514;-73
2023/06/08 00:21:29;;;;;;;24.20;15.00;;;13.30;99.90;;;;;;5104317;28;20668;-71
2023/06/08 00:23:55;;;;;;;23.65;15.13;;;13.30;99.90;;;;;;5083376;28;20031;-70
2023/06/08 00:26:21;;;;;;;20.95;14.70;;;13.40;99.90;;;;;;5088665;28;20128;-70
2023/06/08 00:28:50;;;;;;;22.60;14.70;;;13.40;99.90;;;;;;5069655;28;20067;-71
2023/06/08 00:31:17;;;;;;;20.75;14.68;;;13.40;99.90;;;;;;5088314;28;20071;-71
2023/06/08 00:33:42;;;;;;;19.40;14.70;;;13.40;99.90;;;;;;5097119;28;22319;-73
2023/06/08 00:36:08;;;;;;;21.15;14.73;;;13.40;99.90;;;;;;5088161;28;20130;-72
2023/06/08 00:38:34;;;;;;;25.38;15.02;;;13.40;99.90;;;;;;5086450;28;20171;-71
2023/06/08 00:41:01;;;;;;;20.88;14.55;;;13.40;99.90;;;;;;5092532;28;20130;-71
2023/06/08 00:43:26;;;;;;;24.10;13.88;;;13.40;99.90;;;;;;5065424;28;20047;-70
2023/06/08 00:45:55;;;;;;;19.30;14.30;;;13.40;99.90;;;;;;5083648;28;20058;-70
2023/06/08 00:48:21;;;;;;;22.00;14.05;;;13.40;99.90;;;;;;5086866;28;20051;-73
2023/06/08 00:50:47;;;;;;;20.92;12.80;;;13.40;99.90;;;;;;5100315;27;20086;-70
2023/06/08 00:53:13;;;;;;;20.00;12.05;;;13.50;99.90;;;;;;5070682;28;20138;-71
2023/06/08 00:55:39;;;;;;;20.20;13.73;;;13.50;99.90;;;;;;5070977;28;20051;-71
2023/06/08 00:58:11;;;;;;;17.23;12.93;;;13.50;99.90;;;;;;5064581;28;20095;-73
2023/06/08 01:00:37;;;;;;;20.08;13.10;;;13.50;99.90;;;;;;5071607;28;20036;-72
2023/06/08 01:03:03;;;;;;;18.45;13.05;;;13.50;99.90;;;;;;5089085;28;20051;-71
2023/06/08 01:05:29;;;;;;;19.33;12.50;;;13.40;99.90;;;;;;5094384;28;20039;-70
2023/06/08 01:08:01;;;;;;;18.38;11.02;;;13.40;99.90;;;;;;5093518;28;20055;-71
2023/06/08 01:10:33;;;;;;;18.92;11.30;;;13.30;99.90;;;;;;5072380;28;20067;-70
2023/06/08 01:13:22;;;;;;;18.58;11.48;;;13.30;99.90;;;;;;5090749;28;20411;-71
2023/06/08 01:16:00;;;;;;;18.80;11.70;;;13.30;99.90;;;;;;5088481;28;20047;-72
2023/06/08 01:18:32;;;;;;;20.30;11.20;;;13.20;99.90;;;;;;5073337;28;20104;-71
2023/06/08 01:21:43;;;;;;;15.75;11.23;;;13.20;99.90;;;;;;5055100;28;20529;-73
2023/06/08 01:24:35;;;;;;;19.00;11.18;;;13.20;99.90;;;;;;5079533;28;20075;-71
2023/06/08 01:27:06;;;;;;;18.55;11.13;;;13.20;99.90;;;;;;5087986;28;20083;-70
2023/06/08 01:29:33;;;;;;;16.05;10.32;;;13.10;99.90;;;;;;5066691;28;20514;-71
2023/06/08 01:32:02;;;;;;;17.40;11.10;;;13.10;99.90;;;;;;5110448;27;20507;-71
2023/06/08 01:34:28;;;;;;;18.38;10.93;;;13.10;99.90;;;;;;5073235;28;20375;-70
2023/06/08 01:37:18;;;;;;;17.83;10.63;;;13.10;99.90;;;;;;5089513;28;20080;-72
2023/06/08 01:39:56;;;;;;;15.90;11.15;;;13.10;99.90;;;;;;5063522;28;20062;-70
2023/06/08 01:42:24;;;;;;;19.05;10.95;;;13.10;99.90;;;;;;5085913;28;20052;-70
2023/06/08 01:44:58;;;;;;;17.13;11.20;;;13.10;99.90;;;;;;5073945;28;20063;-71
2023/06/08 01:47:32;;;;;;;19.60;11.75;;;13.10;99.90;;;;;;5090729;28;20111;-71
2023/06/08 01:49:58;;;;;;;17.80;11.57;;;13.10;99.90;;;;;;5061859;28;20075;-72
2023/06/08 01:52:27;;;;;;;18.45;11.00;;;13.10;99.90;;;;;;5070921;28;20058;-70
2023/06/08 01:54:53;;;;;;;22.23;11.70;;;13.10;99.90;;;;;;5092671;28;20084;-73
2023/06/08 01:57:19;;;;;;;15.93;11.80;;;13.10;99.90;;;;;;5086640;28;20982;-71
2023/06/08 01:59:45;;;;;;;15.82;11.25;;;13.10;99.90;;;;;;5080765;28;20118;-70
2023/06/08 02:02:10;;;;;;;16.83;11.95;;;13.10;99.90;;;;;;5075527;28;20056;-70
2023/06/08 02:04:36;;;;;;;17.98;11.98;;;13.10;99.90;;;;;;5076140;28;20161;-72
2023/06/08 02:07:01;;;;;;;17.42;12.00;;;13.00;99.90;;;;;;5107660;27;20486;-70
2023/06/08 02:09:27;;;;;;;19.67;12.00;;;13.00;99.90;;;;;;5094705;28;20047;-72
2023/06/08 02:12:07;;;;;;;18.27;11.95;;;13.00;99.90;;;;;;5103793;27;20353;-71
2023/06/08 02:14:33;;;;;;;19.08;13.07;;;13.00;99.90;;;;;;5066221;28;20182;-69
2023/06/08 02:17:00;;;;;;;18.48;12.80;;;13.00;99.90;;;;;;5085937;28;20046;-69
2023/06/08 02:19:26;;;;;;;20.17;12.48;;;13.00;99.90;;;;;;5084697;28;20127;-70
2023/06/08 02:21:54;;;;;;;18.15;11.90;;;13.00;99.90;;;;;;5093951;28;20073;-71
2023/06/08 02:24:20;;;;;;;21.58;12.85;;;13.00;99.90;;;;;;5091537;28;20087;-69
2023/06/08 02:26:48;;;;;;;18.63;11.98;;;13.10;99.90;;;;;;5112314;27;20036;-72
2023/06/08 02:29:13;;;;;;;21.05;12.32;;;13.10;99.90;;;;;;5073086;28;20048;-71
2023/06/08 02:31:39;;;;;;;21.33;13.07;;;13.10;99.90;;;;;;5085032;28;20478;-70
2023/06/08 02:34:05;;;;;;;20.25;12.32;;;13.10;99.90;;;;;;5092101;28;20051;-68
2023/06/08 02:36:31;;;;;;;20.38;12.60;;;13.10;99.90;;;;;;5085954;28;20039;-68
2023/06/08 02:38:58;;;;;;;20.33;13.15;;;13.10;99.90;;;;;;5089780;28;20047;-69
2023/06/08 02:41:23;;;;;;;20.48;13.35;;;13.10;99.90;;;;;;5094228;28;20043;-69
2023/06/08 02:43:49;;;;;;;18.52;13.35;;;13.10;99.90;;;;;;5087252;28;20448;-69
2023/06/08 02:46:15;;;;;;;19.02;13.43;;;13.10;99.90;;;;;;5086378;28;21591;-71
2023/06/08 02:48:40;;;;;;;17.88;12.68;;;13.10;99.90;;;;;;5072797;28;20593;-68
2023/06/08 02:51:12;;;;;;;21.75;12.88;;;13.00;99.90;;;;;;5089988;28;20087;-70
2023/06/08 02:53:38;;;;;;;21.67;13.60;;;13.00;99.90;;;;;;5075691;28;20039;-68
2023/06/08 02:56:04;;;;;;;21.92;13.90;;;13.00;99.90;;;;;;5083596;28;20561;-71
2023/06/08 02:58:31;;;;;;;23.60;13.48;;;13.00;99.90;;;;;;5090341;28;20039;-69
2023/06/08 03:01:00;;;;;;;19.42;13.50;;;13.00;99.90;;;;;;5092916;28;20048;-72
2023/06/08 03:03:29;;;;;;;20.30;14.68;;;13.00;99.90;;;;;;5065653;28;20667;-68
2023/06/08 03:05:58;;;;;;;19.65;14.57;;;13.00;99.90;;;;;;5074832;28;20047;-68
2023/06/08 03:08:27;;;;;;;22.08;14.68;;;13.00;99.90;;;;;;5086563;28;20034;-68
2023/06/08 03:10:53;;;;;;;19.45;13.82;;;13.00;99.90;;;;;;5072576;28;20168;-68
2023/06/08 03:13:18;;;;;;;21.33;14.50;;;12.90;99.90;;;;;;5108343;27;20067;-69
2023/06/08 03:15:47;;;;;;;25.98;15.35;;;12.90;99.90;;;;;;5091212;28;20047;-69
2023/06/08 03:18:12;;;;;;;21.67;14.80;;;12.90;99.90;;;;;;5070761;28;20819;-68
2023/06/08 03:20:40;;;;;;;19.75;14.63;;;12.90;99.90;;;;;;5078034;28;20134;-70
2023/06/08 03:23:07;;;;;;;22.38;15.48;;;12.90;99.90;;;;;;5085250;28;20495;-70
2023/06/08 03:25:36;;;;;;;24.67;15.10;;;12.90;99.90;;;;;;5112723;27;20082;-71
2023/06/08 03:28:02;;;;;;;21.02;13.57;;;12.90;99.90;;;;;;5093260;28;20107;-71
2023/06/08 03:30:28;;;;;;;23.75;15.27;;;12.80;99.90;;;;;;5085398;28;20035;-70
2023/06/08 03:32:54;;;;;;;23.98;14.88;;;12.90;99.90;;;;;;5076508;28;22169;-70
2023/06/08 03:35:20;;;;;;;21.80;14.93;;;12.80;99.90;;;;;;5108146;27;20072;-70
2023/06/08 03:37:46;;;;;;;20.90;14.57;;;12.80;99.90;;;;;;5090929;28;20384;-71
2023/06/08 03:40:12;;;;;;;20.13;13.90;;;12.80;99.90;;;;;;5061398;28;20086;-70
2023/06/08 03:42:37;;;;;;;20.40;13.98;;;12.80;99.90;;;;;;5061864;28;20406;-69
2023/06/08 03:45:03;;;;;;;18.83;14.23;;;12.80;99.90;;;;;;5064078;28;20055;-70
2023/06/08 03:47:31;;;;;;;22.95;14.82;;;12.80;99.90;;;;;;5086021;28;20081;-70
2023/06/08 03:49:57;;;;;;;22.67;15.32;;;12.80;99.90;;;;;;5064526;28;20040;-70
2023/06/08 03:52:23;;;;;;;20.73;14.77;;;12.80;99.90;;;;;;5071780;28;20063;-69
2023/06/08 03:54:48;;;;;;;20.52;14.93;;;12.80;99.90;;;;;;5083076;28;20414;-72
2023/06/08 03:57:15;;;;;;;22.05;14.85;;;12.80;99.90;;;;;;5100955;27;20047;-71
2023/06/08 03:59:41;;;;;;;23.98;16.15;;;12.80;99.90;;;;;;5070451;28;20049;-69
2023/06/08 04:02:07;;;;;;;23.83;15.27;;;12.80;99.90;;;;;;5094528;28;20051;-70
2023/06/08 04:04:34;;;;;;;21.13;14.30;;;12.80;99.90;;;;;;5093342;28;20050;-68
2023/06/08 04:07:01;;;;;;;20.15;13.90;;;12.80;99.90;;;;;;5077097;28;20039;-69
2023/06/08 04:09:27;;;;;;;19.50;13.50;;;12.80;99.90;;;;;;5060896;28;20035;-70
2023/06/08 04:11:53;;;;;;;20.95;14.23;;;12.90;99.90;;;;;;5067181;28;20051;-70
2023/06/08 04:14:19;;;;;;;20.20;14.70;;;12.90;99.90;;;;;;5083697;28;20038;-70
2023/06/08 04:16:44;;;;;;;19.80;13.80;;;12.90;99.90;;;;;;5082161;28;20055;-69
2023/06/08 04:19:10;;;;;;;17.98;13.35;;;12.90;99.90;;;;;;5095872;28;20120;-70
2023/06/08 04:21:36;;;;;;;19.20;13.60;;;12.90;99.90;;;;;;5097239;28;20502;-68
2023/06/08 04:24:02;;;;;;;20.67;13.98;;;13.00;99.90;;;;;;5075014;28;20539;-70
2023/06/08 04:26:28;;;;;;;22.58;14.25;;;13.00;99.90;;;;;;5065478;28;20059;-72
2023/06/08 04:28:54;;;;;;;22.77;14.15;;;12.90;99.90;;;;;;5071720;28;20074;-70
2023/06/08 04:31:20;;;;;;;19.90;14.13;;;12.80;99.90;;;;;;5089599;28;20405;-73
2023/06/08 04:33:46;;;;;;;20.30;14.18;;;12.80;99.90;;;;;;5056757;28;20048;-68
2023/06/08 04:36:12;;;;;;;22.08;15.00;;;12.80;99.90;;;;;;5078672;28;20044;-68
2023/06/08 04:38:38;;;;;;;23.92;15.55;;;12.80;99.90;;;;;;5081020;28;20051;-68
2023/06/08 04:41:07;;;;;;;24.15;15.02;;;12.80;99.90;;;;;;5078210;28;20044;-70
2023/06/08 04:43:33;;;;;;;23.05;14.85;;;12.80;99.90;;;;;;5077042;28;20146;-67
2023/06/08 04:45:59;;;;;;;24.08;15.13;;;12.80;99.90;;;;;;5096262;27;20486;-69
2023/06/08 04:48:26;;;;;;;20.75;14.77;;;12.80;99.90;;;;;;5087409;28;20056;-68
2023/06/08 04:50:52;;;;;;;27.07;14.43;;;12.80;99.90;;;;;;5086731;28;20393;-69
2023/06/08 04:53:21;;;;;;;24.17;14.30;;;12.80;99.90;;;;;;5064292;28;20306;-69
2023/06/08 04:55:48;;;;;;;21.92;13.90;;;12.80;99.90;;;;;;5090336;28;20048;-71
2023/06/08 04:58:14;;;;;;;20.33;13.90;;;12.80;99.90;;;;;;5089045;28;20035;-68
2023/06/08 05:00:40;;;;;;;19.33;12.97;;;12.80;99.90;;;;;;5109643;27;20646;-71
2023/06/08 05:03:06;;;;;;;20.77;13.25;;;12.80;99.90;;;;;;5106136;27;20178;-68
2023/06/08 05:05:31;;;;;;;20.05;13.60;;;12.80;99.90;;;;;;5090558;28;20119;-71
2023/06/08 05:07:57;;;;;;;19.48;12.40;;;12.80;99.90;;;;;;5093571;28;20044;-68
2023/06/08 05:10:23;;;;;;;17.88;11.90;;;12.80;99.90;;;;;;5097583;28;20035;-74
2023/06/08 05:12:50;;;;;;;20.60;14.02;;;12.90;99.90;;;;;;5087867;28;20043;-71
2023/06/08 05:15:16;;;;;;;22.17;13.25;;;12.90;99.90;;;;;;5090810;28;20055;-69
2023/06/08 05:17:42;;;;;;;21.92;14.23;;;13.00;99.90;;;;;;5091419;28;20093;-69
2023/06/08 05:20:08;;;;;;;21.60;13.43;;;13.00;99.90;;;;;;5081023;28;20044;-69
2023/06/08 05:22:34;;;;;;;21.05;12.95;;;13.00;99.90;;;;;;5077851;28;20043;-69
2023/06/08 05:24:59;;;;;;;25.55;15.10;;;13.00;99.90;;;;;;5106648;27;20066;-69
2023/06/08 05:27:25;;;;;;;22.10;13.70;;;13.10;99.90;;;;;;5066246;28;20079;-70
2023/06/08 05:29:51;;;;;;;21.50;13.60;;;13.10;99.90;;;;;;5100173;27;20517;-71
2023/06/08 05:32:17;;;;;;;23.63;13.52;;;13.10;99.90;;;;;;5101073;27;20043;-70
2023/06/08 05:34:43;;;;;;;17.38;13.35;;;13.20;99.90;;;;;;5071068;28;20387;-70
2023/06/08 05:37:09;;;;;;;19.77;13.05;;;13.30;99.90;;;;;;5078876;27;20077;-71
2023/06/08 05:39:35;;;;;;;21.37;14.20;;;13.20;99.90;;;;;;5087448;27;20040;-69
2023/06/08 05:42:01;;;;;;;19.58;12.98;;;13.20;99.90;;;;;;5067785;28;20046;-70
2023/06/08 05:44:27;;;;;;;19.92;13.15;;;13.30;99.90;;;;;;5084090;28;20417;-71
2023/06/08 05:46:53;;;;;;;23.20;14.05;;;13.30;99.90;;;;;;5090857;27;20115;-69
2023/06/08 05:49:19;;;;;;;19.23;13.70;;;13.40;99.90;;;;;;5090222;28;20051;-69
2023/06/08 05:51:45;;;;;;;21.60;13.85;;;13.50;99.90;;;;;;5097727;27;20128;-69
2023/06/08 05:54:11;;;;;;;24.75;14.15;;;13.50;99.90;;;;;;5087712;28;20422;-69
2023/06/08 05:56:36;;;;;;;22.33;14.93;;;13.60;99.90;;;;;;5076106;28;20054;-68
2023/06/08 05:59:02;;;;;;;20.67;14.63;;;13.60;99.90;;;;;;5068778;28;20047;-69
2023/06/08 06:01:28;;;;;;;21.00;14.45;;;13.60;99.90;;;;;;5079285;28;20044;-69
2023/06/08 06:03:53;;;;;;;19.50;14.48;;;13.70;99.90;;;;;;5070874;28;21065;-70
2023/06/08 06:06:19;;;;;;;21.88;14.77;;;13.70;99.90;;;;;;5108052;27;20043;-68
2023/06/08 06:08:48;;;;;;;21.42;14.70;;;13.70;99.90;;;;;;5085258;27;20088;-69
2023/06/08 06:11:14;;;;;;;24.95;15.63;;;13.80;99.90;;;;;;5063733;28;20050;-69
2023/06/08 06:13:40;;;;;;;20.88;15.18;;;13.90;99.90;;;;;;5094478;28;20071;-71
2023/06/08 06:16:05;;;;;;;22.92;15.73;;;13.90;99.90;;;;;;5084164;28;20031;-71
2023/06/08 06:18:31;;;;;;;22.25;14.60;;;14.00;99.90;;;;;;5085931;28;21806;-70
2023/06/08 06:20:57;;;;;;;24.95;16.73;;;14.00;99.90;;;;;;5083708;28;20165;-70
2023/06/08 06:23:23;;;;;;;22.55;15.55;;;14.10;99.90;;;;;;5088728;27;20111;-70
2023/06/08 06:25:50;;;;;;;21.83;16.25;;;14.10;99.90;;;;;;5062342;28;21567;-69
2023/06/08 06:28:15;;;;;;;22.88;14.93;;;14.20;99.90;;;;;;5094872;27;20048;-69
2023/06/08 06:30:41;;;;;;;21.80;15.18;;;14.20;99.90;;;;;;5080238;28;20433;-69
2023/06/08 06:33:07;;;;;;;24.98;15.23;;;14.20;99.90;;;;;;5086340;28;20430;-70
2023/06/08 06:35:32;;;;;;;24.85;15.32;;;14.20;99.90;;;;;;5089938;28;20094;-70
2023/06/08 06:37:58;;;;;;;18.60;15.00;;;14.20;99.90;;;;;;5063962;28;20079;-70
2023/06/08 06:40:24;;;;;;;21.80;14.68;;;14.30;99.90;;;;;;5082477;27;20604;-71
2023/06/08 06:42:50;;;;;;;23.88;14.63;;;14.30;99.90;;;;;;5072008;28;20049;-71
2023/06/08 06:45:15;;;;;;;20.42;13.60;;;14.40;99.90;;;;;;5108258;27;20077;-71
2023/06/08 06:47:42;;;;;;;16.70;12.68;;;14.30;99.90;;;;;;5085711;28;20068;-71
2023/06/08 06:50:08;;;;;;;18.50;12.90;;;14.30;99.90;;;;;;5089579;28;20903;-72
2023/06/08 06:52:34;;;;;;;17.60;11.50;;;14.40;99.90;;;;;;5069073;28;20043;-73
2023/06/08 06:55:02;;;;;;;19.85;11.32;;;14.60;99.90;;;;;;5075131;28;20062;-73
2023/06/08 06:57:28;;;;;;;16.80;10.55;;;14.70;99.90;;;;;;5093436;27;20054;-72
2023/06/08 06:59:55;;;;;;;15.83;10.90;;;14.90;99.90;;;;;;5073849;28;20055;-71
2023/06/08 07:02:22;;;;;;;18.17;11.20;;;14.90;99.90;;;;;;5093865;28;21169;-68
2023/06/08 07:04:48;;;;;;;19.70;10.85;;;15.00;99.90;;;;;;5091744;28;20838;-68
2023/06/08 07:07:14;;;;;;;17.77;10.00;;;15.10;99.90;;;;;;5110396;27;20140;-71
2023/06/08 07:09:40;;;;;;;18.45;9.75;;;15.10;99.90;;;;;;5095191;28;20150;-73
2023/06/08 07:12:06;;;;;;;16.33;9.40;;;15.20;99.90;;;;;;5073796;28;20096;-72
2023/06/08 07:14:31;;;;;;;15.07;8.68;;;15.30;99.90;;;;;;5095120;28;20039;-70
2023/06/08 07:16:57;;;;;;;16.10;8.93;;;15.40;99.90;;;;;;5078100;28;20098;-71
2023/06/08 07:19:23;;;;;;;15.00;9.38;;;15.50;99.90;;;;;;5062936;28;20038;-70
2023/06/08 07:21:48;;;;;;;18.55;9.45;;;15.50;99.90;;;;;;5068561;28;20047;-67
2023/06/08 07:24:14;;;;;;;16.98;9.55;;;15.50;99.90;;;;;;5077119;28;20553;-67
2023/06/08 07:26:40;;;;;;;14.38;8.32;;;15.60;99.90;;;;;;5095101;28;20047;-69
2023/06/08 07:29:05;;;;;;;17.15;9.60;;;15.70;99.90;;;;;;5088546;28;20059;-69
2023/06/08 07:31:31;;;;;;;17.45;9.02;;;15.70;99.90;;;;;;5093855;28;20050;-69
2023/06/08 07:33:57;;;;;;;15.82;9.00;;;15.90;99.90;;;;;;5095689;28;20043;-69
2023/06/08 07:36:23;;;;;;;17.70;9.05;;;16.00;99.90;;;;;;5090590;28;20082;-69
2023/06/08 07:38:50;;;;;;;15.90;9.00;;;16.10;99.90;;;;;;5088962;27;20050;-71
2023/06/08 07:41:19;;;;;;;17.73;9.38;;;16.10;99.90;;;;;;5061076;28;20063;-69
2023/06/08 07:43:44;;;;;;;15.85;8.88;;;16.20;99.90;;;;;;5095087;28;20406;-70
2023/06/08 07:46:11;;;;;;;16.05;9.63;;;16.10;99.90;;;;;;5074853;28;20039;-69
2023/06/08 07:48:37;;;;;;;20.08;9.88;;;16.10;99.90;;;;;;5084473;28;20047;-68
2023/06/08 07:51:02;;;;;;;16.00;9.13;;;16.00;99.90;;;;;;5066181;28;20051;-67
2023/06/08 07:53:39;;;;;;;19.70;10.00;;;16.00;99.90;;;;;;5095841;28;20043;-67
2023/06/08 07:56:05;;;;;;;17.73;9.82;;;16.00;99.90;;;;;;5072336;28;20079;-68
2023/06/08 07:58:31;;;;;;;22.50;10.10;;;16.00;99.90;;;;;;5091825;28;20047;-66
2023/06/08 08:01:00;;;;;;;15.48;9.27;;;15.90;99.90;;;;;;5074685;28;20047;-68
2023/06/08 08:03:27;;;;;;;18.15;10.00;;;16.00;99.90;;;;;;5088862;28;20032;-69
2023/06/08 08:05:53;;;;;;;16.43;11.07;;;16.00;99.90;;;;;;5090585;28;20051;-72
2023/06/08 08:08:19;;;;;;;17.08;11.20;;;16.10;99.90;;;;;;5079875;28;21714;-70
2023/06/08 08:10:45;;;;;;;17.25;10.20;;;16.20;99.90;;;;;;5097566;28;20044;-69
2023/06/08 08:13:12;;;;;;;22.83;10.88;;;16.20;99.90;;;;;;5099333;28;20969;-70
2023/06/08 08:15:40;;;;;;;19.90;11.52;;;16.30;99.90;;;;;;5086478;28;20039;-69
2023/06/08 08:18:06;;;;;;;33.83;12.15;;;16.40;99.90;;;;;;5098249;28;20043;-69
2023/06/08 08:20:31;;;;;;;121.53;19.50;;;16.50;99.90;;;;;;5106626;28;20067;-68
2023/06/08 08:22:57;;;;;;;263.10;27.77;;;16.60;99.90;;;;;;5107263;28;20071;-69
2023/06/08 08:25:23;;;;;;;16.83;10.82;;;16.70;99.90;;;;;;5074037;28;20044;-69
2023/06/08 08:27:48;;;;;;;19.95;11.25;;;16.80;99.90;;;;;;5114883;28;20490;-70
2023/06/08 08:30:14;;;;;;;20.15;10.50;;;16.90;99.90;;;;;;5094650;28;20986;-71
2023/06/08 08:32:40;;;;;;;18.70;10.43;;;17.00;99.90;;;;;;5058586;28;20116;-70
2023/06/08 08:35:06;;;;;;;17.85;10.05;;;17.10;99.90;;;;;;5090242;28;20040;-69
2023/06/08 08:37:32;;;;;;;29.55;12.25;;;17.30;99.90;;;;;;5102190;28;20444;-69
2023/06/08 08:39:58;;;;;;;25.60;11.70;;;17.50;99.90;;;;;;5100624;28;20120;-71
2023/06/08 08:42:29;;;;;;;18.25;9.95;;;17.60;99.90;;;;;;5118653;27;20075;-70
2023/06/08 08:44:57;;;;;;;19.85;9.55;;;17.80;99.90;;;;;;5082671;28;20493;-68
2023/06/08 08:47:26;;;;;;;26.58;12.13;;;17.90;99.90;;;;;;5083828;28;20054;-69
2023/06/08 08:50:06;;;;;;;23.88;10.50;;;18.00;99.90;;;;;;5081850;28;20079;-69
2023/06/08 08:52:38;;;;;;;26.42;11.07;;;18.20;99.90;;;;;;5081065;28;20055;-69
2023/06/08 08:55:05;;;;;;;15.13;9.40;;;18.30;99.90;;;;;;5113644;27;20059;-69
2023/06/08 08:57:32;;;;;;;15.93;8.45;;;18.50;99.90;;;;;;5091793;28;20403;-69
2023/06/08 08:59:58;;;;;;;15.30;8.60;;;18.50;99.90;;;;;;5100862;28;20053;-68
2023/06/08 09:02:25;;;;;;;19.40;9.07;;;18.60;99.90;;;;;;5075113;28;20044;-70
2023/06/08 09:04:54;;;;;;;24.38;10.90;;;18.60;99.90;;;;;;5100470;28;20603;-68
2023/06/08 09:07:21;;;;;;;39.58;16.60;;;18.50;99.90;;;;;;5102113;28;20070;-69
2023/06/08 09:10:14;;;;;;;17.08;9.55;;;18.40;99.90;;;;;;5103351;27;20074;-70
2023/06/08 09:12:45;;;;;;;16.40;8.52;;;18.40;99.90;;;;;;5101436;28;20546;-72
2023/06/08 09:15:12;;;;;;;14.75;8.23;;;18.40;99.90;;;;;;5082957;28;20055;-71
2023/06/08 09:17:38;;;;;;;17.92;8.10;;;18.40;99.90;;;;;;5084496;28;20047;-72
2023/06/08 09:20:10;;;;;;;28.52;11.55;;;18.40;99.90;;;;;;5101319;28;20450;-71
2023/06/08 09:22:39;;;;;;;24.05;10.88;;;18.50;99.90;;;;;;5115455;27;21593;-73
2023/06/08 09:25:06;;;;;;;19.63;8.55;;;18.60;99.90;;;;;;5102065;28;20123;-72
2023/06/08 09:27:32;;;;;;;16.55;8.32;;;18.60;99.90;;;;;;5077817;28;20043;-70
2023/06/08 09:30:00;;;;;;;42.27;18.40;;;18.70;99.90;;;;;;5066425;28;20667;-71
2023/06/08 09:32:32;;;;;;;;;;;18.70;99.90;;;;;;5081726;28;20035;-74
2023/06/08 09:35:03;;;;;;;14.68;7.57;;;18.80;99.90;;;;;;5082941;28;20014;-73
2023/06/08 09:37:30;;;;;;;14.95;8.82;;;18.90;99.90;;;;;;5080989;28;20077;-74
2023/06/08 09:39:57;;;;;;;17.45;8.82;;;19.00;99.90;;;;;;5083284;28;20222;-73
2023/06/08 09:42:39;;;;;;;20.55;8.55;;;19.20;99.90;;;;;;5098390;28;20143;-72
2023/06/08 09:45:10;;;;;;;11.57;6.60;;;19.30;99.90;;;;;;5097494;28;20043;-71
2023/06/08 09:47:36;;;;;;;13.68;6.53;;;19.40;99.90;;;;;;5097982;28;20096;-71
2023/06/08 09:50:05;;;;;;;12.27;6.03;;;19.50;99.90;;;;;;5076901;28;20063;-72
2023/06/08 09:52:33;;;;;;;13.73;6.82;;;19.50;99.90;;;;;;5096834;28;20170;-71
2023/06/08 09:54:58;;;;;;;;;;;19.60;99.90;;;;;;5074994;28;20055;-72
2023/06/08 09:57:27;;;;;;;12.95;6.50;;;19.60;99.90;;;;;;5063737;28;19923;-73
2023/06/08 10:00:14;;;;;;;12.48;6.00;;;19.60;99.90;;;;;;5088021;28;21765;-72
2023/06/08 10:03:11;;;;;;;12.27;5.90;;;19.60;99.90;;;;;;5074877;28;20123;-72
2023/06/08 10:05:45;;;;;;;11.35;5.65;;;19.50;99.90;;;;;;5061856;28;20048;-74
2023/06/08 10:08:13;;;;;;;10.82;6.10;;;19.50;99.90;;;;;;5110669;27;20193;-72
2023/06/08 10:10:39;;;;;;;11.05;6.32;;;19.50;99.90;;;;;;5076441;28;20043;-71
2023/06/08 10:13:05;;;;;;;12.30;5.97;;;19.50;99.70;;;;;;5069235;27;20059;-73
2023/06/08 10:15:34;;;;;;;11.15;6.10;;;19.50;99.30;;;;;;5087739;27;20559;-72
2023/06/08 10:18:00;;;;;;;10.90;6.88;;;19.50;99.20;;;;;;5086253;27;20044;-72
2023/06/08 10:20:27;;;;;;;13.93;6.50;;;19.50;99.60;;;;;;5070949;28;20040;-73
2023/06/08 10:22:53;;;;;;;13.23;5.35;;;19.50;99.80;;;;;;5074619;27;20044;-72
2023/06/08 10:25:20;;;;;;;14.05;6.43;;;19.60;99.70;;;;;;5087713;27;20076;-74
2023/06/08 10:27:48;;;;;;;11.13;6.43;;;19.70;99.70;;;;;;5068582;28;20065;-71
2023/06/08 10:30:39;;;;;;;12.02;6.43;;;19.90;99.70;;;;;;5070290;28;20049;-72
2023/06/08 10:33:21;;;;;;;12.63;5.93;;;20.10;99.90;;;;;;5078277;28;20076;-71
2023/06/08 10:36:11;;;;;;;10.45;5.78;;;20.40;99.40;;;;;;5078522;28;20535;-71
2023/06/08 10:38:54;;;;;;;15.60;6.45;;;20.70;99.00;;;;;;5077858;28;20047;-72
2023/06/08 10:41:43;;;;;;;17.58;7.65;;;20.90;98.90;;;;;;5079100;28;20051;-72
2023/06/08 10:44:29;;;;;;;26.98;9.77;;;21.10;98.40;;;;;;5091498;28;20130;-71
2023/06/08 10:47:05;;;;;;;20.13;7.50;;;21.20;98.40;;;;;;5069169;28;20043;-71
2023/06/08 10:49:33;;;;;;;18.08;7.90;;;21.40;98.00;;;;;;5098291;28;20104;-71
2023/06/08 10:52:05;;;;;;;11.77;6.25;;;21.40;97.90;;;;;;5080232;28;20048;-70
2023/06/08 10:54:31;;;;;;;22.52;9.77;;;21.50;98.10;;;;;;5080290;28;20077;-71
2023/06/08 10:57:03;;;;;;;10.82;5.47;;;21.60;97.60;;;;;;5072930;28;20035;-71
2023/06/08 10:59:35;;;;;;;15.95;7.85;;;21.70;96.90;;;;;;5098845;28;20406;-70
2023/06/08 11:02:06;;;;;;;18.67;7.30;;;21.80;96.60;;;;;;5080152;28;20470;-71
2023/06/08 11:04:33;;;;;;;16.67;8.02;;;21.90;96.90;;;;;;5078005;28;20052;-70
2023/06/08 11:07:03;;;;;;;15.10;6.90;;;22.00;96.60;;;;;;5080299;28;20031;-70
2023/06/08 11:09:31;;;;;;;15.55;6.90;;;22.00;96.30;;;;;;5081690;28;20062;-69
2023/06/08 11:11:57;;;;;;;13.13;6.28;;;22.10;96.20;;;;;;5100058;28;20070;-73
2023/06/08 11:14:22;;;;;;;24.08;9.10;;;22.10;95.90;;;;;;5093790;28;20035;-71
2023/06/08 11:16:51;;;;;;;13.57;6.45;;;22.20;95.80;;;;;;5080291;28;20508;-69
2023/06/08 11:19:18;;;;;;;14.77;7.10;;;22.20;96.30;;;;;;5113845;27;20051;-70
2023/06/08 11:21:45;;;;;;;13.25;6.50;;;22.30;96.10;;;;;;5079422;28;20489;-70
2023/06/08 11:24:13;;;;;;;12.32;6.10;;;22.40;96.10;;;;;;5078867;28;20108;-70
2023/06/08 11:26:39;;;;;;;16.67;7.47;;;22.50;96.00;;;;;;5081442;28;20123;-69
2023/06/08 11:29:05;;;;;;;10.60;6.10;;;22.60;95.80;;;;;;5076788;28;20051;-69
2023/06/08 11:31:33;;;;;;;12.73;6.25;;;22.70;95.30;;;;;;5098430;28;20047;-70
2023/06/08 11:34:00;;;;;;;15.55;6.45;;;22.80;95.40;;;;;;5096538;28;20506;-71
2023/06/08 11:36:27;;;;;;;13.77;5.65;;;22.90;95.20;;;;;;5094410;28;20080;-70
2023/06/08 11:38:53;;;;;;;13.25;6.07;;;23.00;95.00;;;;;;5081345;28;20501;-70
2023/06/08 11:41:22;;;;;;;10.57;6.30;;;23.10;95.10;;;;;;5098221;28;20039;-71
2023/06/08 11:43:49;;;;;;;10.85;5.65;;;23.20;94.50;;;;;;5099031;28;20031;-71
2023/06/08 11:46:15;;;;;;;15.30;6.85;;;23.20;95.10;;;;;;5075801;28;20053;-71
2023/06/08 11:48:41;;;;;;;12.18;6.88;;;23.30;94.80;;;;;;5087738;28;20055;-72
2023/06/08 11:51:07;;;;;;;14.43;6.30;;;23.40;94.80;;;;;;5070304;28;20054;-72
2023/06/08 11:53:33;;;;;;;11.63;6.30;;;23.50;94.40;;;;;;5087421;28;20040;-70
2023/06/08 11:55:59;;;;;;;13.63;6.25;;;23.50;94.60;;;;;;5068019;28;20116;-70
2023/06/08 11:58:29;;;;;;;12.25;6.05;;;23.50;94.70;;;;;;5109928;27;20047;-71
2023/06/08 12:01:11;;;;;;;12.77;5.75;;;23.70;94.50;;;;;;5095458;28;20039;-70
2023/06/08 12:03:49;;;;;;;10.93;5.93;;;23.70;93.80;;;;;;5072297;28;20040;-70
2023/06/08 12:06:18;;;;;;;10.32;5.88;;;23.80;93.00;;;;;;5088963;28;20039;-70
2023/06/08 12:08:44;;;;;;;14.10;5.72;;;23.90;93.10;;;;;;5096596;28;20039;-69
2023/06/08 12:11:13;;;;;;;18.37;8.17;;;23.90;93.20;;;;;;5087109;28;20402;-69
2023/06/08 12:13:39;;;;;;;23.40;9.30;;;24.00;93.20;;;;;;5096033;28;20090;-70
2023/06/08 12:16:06;;;;;;;11.35;5.85;;;24.00;93.00;;;;;;5096585;28;20071;-71
2023/06/08 12:18:39;;;;;;;;;;;24.10;92.50;;;;;;5099683;28;20036;-69
2023/06/08 12:21:09;;;;;;;9.88;5.70;;;24.00;91.10;;;;;;5092963;28;19923;-71
2023/06/08 12:23:35;;;;;;;10.57;5.78;;;23.90;91.60;;;;;;5095276;28;20047;-71
2023/06/08 12:26:02;;;;;;;14.77;6.07;;;23.90;92.00;;;;;;5097487;28;20047;-69
2023/06/08 12:28:28;;;;;;;13.40;6.10;;;23.90;92.20;;;;;;5074094;28;20080;-69
2023/06/08 12:30:54;;;;;;;13.43;5.82;;;24.00;91.60;;;;;;5074071;28;20051;-69
2023/06/08 12:33:21;;;;;;;10.48;5.45;;;24.00;91.40;;;;;;5092946;28;20832;-69
2023/06/08 12:35:51;;;;;;;11.18;5.28;;;24.00;91.40;;;;;;5098316;28;20512;-69